Time;durP1;ratioP1;P1;durP2;ratioP2;P2;SDS_P1;SDS_P2;PMS_P1;PMS_P2;Temp;Humidity;BMP_temperature;BMP_pressure;BME280_temperature;BME280_humidity;BME280_pressure;Samples;Min_cycle;Max_cycle;Signal;HPM_P1;HPM_P2
2022/07/19 00:02:04;;;;;;;6.43;4.70;;;18.70;99.90;;;;;;5049117;28;20056;-79
2022/07/19 00:04:31;;;;;;;6.55;4.38;;;18.70;99.90;;;;;;5052976;28;20044;-79
2022/07/19 00:06:57;;;;;;;5.47;4.13;;;18.70;99.90;;;;;;5054252;28;20069;-79
2022/07/19 00:09:26;;;;;;;6.97;4.63;;;18.80;99.90;;;;;;5059463;28;20130;-79
2022/07/19 00:11:53;;;;;;;6.50;5.15;;;18.80;99.90;;;;;;5053124;28;20097;-79
2022/07/19 00:14:20;;;;;;;7.35;4.70;;;18.80;99.90;;;;;;5069801;28;20117;-79
2022/07/19 00:16:46;;;;;;;6.53;4.63;;;18.90;99.90;;;;;;5054467;28;20037;-79
2022/07/19 00:19:12;;;;;;;6.65;4.63;;;18.90;99.90;;;;;;5065391;28;20399;-79
2022/07/19 00:21:38;;;;;;;5.10;4.10;;;18.90;99.90;;;;;;5034583;28;20049;-80
2022/07/19 00:24:07;;;;;;;7.07;5.07;;;18.90;99.90;;;;;;5071025;28;20044;-79
2022/07/19 00:26:33;;;;;;;8.20;4.63;;;19.00;99.90;;;;;;5047489;28;20055;-78
2022/07/19 00:29:00;;;;;;;6.20;4.03;;;19.00;99.90;;;;;;5065809;28;20048;-79
2022/07/19 00:31:26;;;;;;;7.57;4.32;;;19.00;99.90;;;;;;5051454;28;20175;-78
2022/07/19 00:33:55;;;;;;;7.18;4.10;;;19.00;99.90;;;;;;5066179;28;20123;-79
2022/07/19 00:36:21;;;;;;;5.90;4.03;;;19.10;99.90;;;;;;5048680;28;20040;-79
2022/07/19 00:38:47;;;;;;;6.85;4.50;;;19.10;99.90;;;;;;5051880;28;20048;-79
2022/07/19 00:41:12;;;;;;;8.13;4.40;;;19.10;99.90;;;;;;5040427;28;20040;-79
2022/07/19 00:43:42;;;;;;;6.78;4.22;;;19.10;99.90;;;;;;5070121;28;20040;-79
2022/07/19 00:46:12;;;;;;;;;;;19.10;99.90;;;;;;5049008;28;20470;-79
2022/07/19 00:48:38;;;;;;;6.35;4.53;;;19.10;99.90;;;;;;5059271;28;19948;-79
2022/07/19 00:51:04;;;;;;;6.15;4.13;;;19.10;99.90;;;;;;5048944;28;20043;-79
2022/07/19 00:53:31;;;;;;;6.45;4.10;;;19.10;99.90;;;;;;5061331;28;20037;-79
2022/07/19 00:56:03;;;;;;;6.05;4.20;;;19.10;99.90;;;;;;5029946;28;20041;-79
2022/07/19 00:58:30;;;;;;;6.68;4.70;;;19.10;99.90;;;;;;5064049;28;20043;-79
2022/07/19 01:00:56;;;;;;;7.78;4.50;;;19.10;99.90;;;;;;5063883;28;20039;-79
2022/07/19 01:03:25;;;;;;;6.32;4.40;;;19.10;99.90;;;;;;5051069;28;20280;-79
2022/07/19 01:05:52;;;;;;;8.48;4.82;;;19.10;99.90;;;;;;5050311;28;20488;-79
2022/07/19 01:08:18;;;;;;;7.47;4.63;;;19.00;99.90;;;;;;5049970;28;20530;-79
2022/07/19 01:10:44;;;;;;;5.95;4.45;;;19.00;99.90;;;;;;5054118;28;20629;-79
2022/07/19 01:13:13;;;;;;;7.80;4.25;;;19.00;99.90;;;;;;5047225;28;20036;-79
2022/07/19 01:15:41;;;;;;;7.38;5.00;;;19.00;99.90;;;;;;5059986;28;20044;-79
2022/07/19 01:18:08;;;;;;;5.50;4.30;;;19.00;99.90;;;;;;5066855;28;20507;-79
2022/07/19 01:20:34;;;;;;;6.55;3.97;;;19.00;99.90;;;;;;5037963;28;20510;-79
2022/07/19 01:23:00;;;;;;;7.70;4.68;;;19.00;99.90;;;;;;5047485;28;20040;-79
2022/07/19 01:25:32;;;;;;;6.47;4.30;;;19.00;99.90;;;;;;5063310;28;20263;-79
2022/07/19 01:27:59;;;;;;;7.45;4.20;;;19.00;99.90;;;;;;5062243;28;20044;-79
2022/07/19 01:30:27;;;;;;;6.43;4.55;;;19.00;99.90;;;;;;5047679;28;20053;-79
2022/07/19 01:32:56;;;;;;;7.93;4.68;;;18.90;99.90;;;;;;5046762;28;20490;-79
2022/07/19 01:35:22;;;;;;;7.28;4.63;;;18.90;99.90;;;;;;5029949;28;20157;-79
2022/07/19 01:37:49;;;;;;;8.57;5.28;;;18.90;99.90;;;;;;5047833;28;20534;-79
2022/07/19 01:40:16;;;;;;;8.00;4.95;;;18.90;99.90;;;;;;5064298;28;20048;-79
2022/07/19 01:42:42;;;;;;;6.90;4.72;;;18.90;99.90;;;;;;5064061;28;20048;-80
2022/07/19 01:45:09;;;;;;;6.50;4.60;;;18.80;99.90;;;;;;5062879;28;20151;-80
2022/07/19 01:47:40;;;;;;;7.32;4.60;;;18.80;99.90;;;;;;5045543;28;20067;-79
2022/07/19 01:50:07;;;;;;;6.93;4.72;;;18.80;99.90;;;;;;5054389;28;20554;-79
2022/07/19 01:52:33;;;;;;;8.77;4.57;;;18.80;99.90;;;;;;5050270;28;20075;-80
2022/07/19 01:54:59;;;;;;;7.50;4.72;;;18.80;99.90;;;;;;5064178;28;20075;-80
2022/07/19 01:57:28;;;;;;;7.47;4.90;;;18.80;99.90;;;;;;5050621;28;20036;-80
2022/07/19 01:59:54;;;;;;;6.63;4.47;;;18.80;99.90;;;;;;5051355;28;20045;-79
2022/07/19 02:02:20;;;;;;;6.78;5.00;;;18.80;99.90;;;;;;5029059;28;20093;-80
2022/07/19 02:04:46;;;;;;;7.72;4.93;;;18.90;99.90;;;;;;5040997;28;20040;-80
2022/07/19 02:07:11;;;;;;;6.90;4.80;;;18.80;99.90;;;;;;5050699;28;20458;-80
2022/07/19 02:09:37;;;;;;;5.88;4.68;;;18.80;99.90;;;;;;5063129;28;20053;-79
2022/07/19 02:12:03;;;;;;;7.38;4.65;;;18.80;99.90;;;;;;5029455;28;20044;-79
2022/07/19 02:14:29;;;;;;;5.47;4.45;;;18.70;99.90;;;;;;5062324;28;20043;-79
2022/07/19 02:16:55;;;;;;;7.72;4.78;;;18.80;99.90;;;;;;5048060;28;20388;-79
2022/07/19 02:19:21;;;;;;;7.07;4.68;;;18.80;99.90;;;;;;5040286;28;20509;-79
2022/07/19 02:21:47;;;;;;;6.30;4.90;;;18.70;99.90;;;;;;5058100;28;20634;-79
2022/07/19 02:24:13;;;;;;;10.13;5.30;;;18.80;99.90;;;;;;5061290;28;20168;-79
2022/07/19 02:26:39;;;;;;;5.97;4.45;;;18.70;99.90;;;;;;5064785;28;20388;-79
2022/07/19 02:29:05;;;;;;;7.57;4.65;;;18.70;99.90;;;;;;5051415;28;20040;-79
2022/07/19 02:31:31;;;;;;;8.02;5.10;;;18.70;99.90;;;;;;5052159;28;20044;-79
2022/07/19 02:33:57;;;;;;;8.45;5.38;;;18.70;99.90;;;;;;5053108;28;20056;-78
2022/07/19 02:36:26;;;;;;;7.93;5.25;;;18.60;99.90;;;;;;5052888;28;20037;-79
2022/07/19 02:38:52;;;;;;;7.35;5.03;;;18.60;99.90;;;;;;5043630;28;20546;-79
2022/07/19 02:41:17;;;;;;;6.70;5.35;;;18.60;99.90;;;;;;5056899;28;20064;-79
2022/07/19 02:43:44;;;;;;;8.15;5.50;;;18.50;99.90;;;;;;5038834;28;20098;-79
2022/07/19 02:46:10;;;;;;;7.15;5.30;;;18.50;99.90;;;;;;5049938;28;20044;-79
2022/07/19 02:48:35;;;;;;;8.27;5.07;;;18.40;99.90;;;;;;5054897;28;20174;-79
2022/07/19 02:51:02;;;;;;;6.50;4.90;;;18.40;99.90;;;;;;5065445;28;20127;-79
2022/07/19 02:53:27;;;;;;;7.03;4.68;;;18.40;99.90;;;;;;5049866;28;20037;-79
2022/07/19 02:55:53;;;;;;;8.02;5.47;;;18.40;99.90;;;;;;5051834;28;20428;-79
2022/07/19 02:58:22;;;;;;;8.65;5.25;;;18.40;99.90;;;;;;5059651;28;20546;-79
2022/07/19 03:00:50;;;;;;;7.93;4.90;;;18.40;99.90;;;;;;5068573;28;20047;-79
2022/07/19 03:06:03;;;;;;;7.10;4.82;;;18.40;99.90;;;;;;5055088;28;20053;-79
2022/07/19 03:08:29;;;;;;;7.22;5.28;;;18.30;99.90;;;;;;5050002;28;20049;-79
2022/07/19 03:10:55;;;;;;;6.00;5.10;;;18.30;99.90;;;;;;5035498;28;20052;-79
2022/07/19 03:13:21;;;;;;;7.30;4.95;;;18.30;99.90;;;;;;5048165;28;20427;-79
2022/07/19 03:15:47;;;;;;;8.18;5.32;;;18.30;99.90;;;;;;5038114;28;20049;-79
2022/07/19 03:18:13;;;;;;;8.10;5.47;;;18.30;99.90;;;;;;5070272;28;20507;-79
2022/07/19 03:20:39;;;;;;;7.60;5.68;;;18.20;99.90;;;;;;5060313;28;20285;-78
2022/07/19 03:23:04;;;;;;;9.55;5.55;;;18.20;99.90;;;;;;5049103;28;20119;-79
2022/07/19 03:25:30;;;;;;;8.23;5.40;;;18.20;99.90;;;;;;5035767;28;20051;-79
2022/07/19 03:27:56;;;;;;;7.95;5.20;;;18.20;99.90;;;;;;5063255;28;20047;-79
2022/07/19 03:30:22;;;;;;;7.88;5.25;;;18.20;99.90;;;;;;5054042;28;20048;-79
2022/07/19 03:32:48;;;;;;;9.35;6.20;;;18.20;99.90;;;;;;5058976;28;20047;-79
2022/07/19 03:35:14;;;;;;;6.78;5.03;;;18.20;99.90;;;;;;5072146;28;20040;-79
2022/07/19 03:37:43;;;;;;;7.53;5.20;;;18.20;99.90;;;;;;5052151;28;20403;-79
2022/07/19 03:40:11;;;;;;;6.43;5.07;;;18.10;99.90;;;;;;5062631;28;20040;-79
2022/07/19 03:42:36;;;;;;;7.78;5.75;;;18.20;99.90;;;;;;5055271;28;20039;-79
2022/07/19 03:45:03;;;;;;;9.30;5.45;;;18.20;99.90;;;;;;5075602;28;20522;-79
2022/07/19 03:47:28;;;;;;;7.82;5.18;;;18.20;99.90;;;;;;5034170;28;20051;-79
2022/07/19 03:49:54;;;;;;;7.05;5.22;;;18.20;99.90;;;;;;5062432;28;20048;-78
2022/07/19 03:52:23;;;;;;;7.63;5.03;;;18.10;99.90;;;;;;5054022;28;20040;-79
2022/07/19 03:54:49;;;;;;;9.68;5.72;;;18.10;99.90;;;;;;5058643;28;20036;-79
2022/07/19 03:57:15;;;;;;;9.88;5.60;;;18.20;99.90;;;;;;5065048;28;20076;-79
2022/07/19 03:59:41;;;;;;;9.75;5.20;;;18.20;99.90;;;;;;5033015;28;20134;-79
2022/07/19 04:02:07;;;;;;;8.68;5.30;;;18.20;99.90;;;;;;5065420;28;20490;-79
2022/07/19 04:04:33;;;;;;;8.63;5.50;;;18.20;99.90;;;;;;5046101;28;20052;-79
2022/07/19 04:06:58;;;;;;;8.52;5.47;;;18.20;99.90;;;;;;5044649;28;20029;-79
2022/07/19 04:09:30;;;;;;;9.40;5.18;;;18.30;99.90;;;;;;5065232;28;20449;-79
2022/07/19 04:11:56;;;;;;;8.98;5.88;;;18.30;99.90;;;;;;5051688;28;20129;-79
2022/07/19 04:14:21;;;;;;;8.40;5.53;;;18.30;99.90;;;;;;5053787;28;20098;-79
2022/07/19 04:16:47;;;;;;;8.00;6.00;;;18.30;99.90;;;;;;5049830;28;20055;-79
2022/07/19 04:19:13;;;;;;;8.57;5.93;;;18.30;99.90;;;;;;5067778;28;20089;-79
2022/07/19 04:21:39;;;;;;;8.77;6.22;;;18.30;99.90;;;;;;5073470;28;20375;-79
2022/07/19 04:24:04;;;;;;;7.65;5.63;;;18.30;99.90;;;;;;5052960;28;20051;-79
2022/07/19 04:26:33;;;;;;;10.30;6.13;;;18.30;99.90;;;;;;5052350;28;20048;-79
2022/07/19 04:28:59;;;;;;;9.05;5.65;;;18.30;99.90;;;;;;5046697;28;20055;-79
2022/07/19 04:31:24;;;;;;;7.90;6.00;;;18.30;99.90;;;;;;5015321;28;20502;-79
2022/07/19 04:33:50;;;;;;;6.63;5.38;;;18.30;99.90;;;;;;5065742;28;20606;-79
2022/07/19 04:36:16;;;;;;;9.15;6.05;;;18.40;99.90;;;;;;5051167;28;20503;-79
2022/07/19 04:38:42;;;;;;;9.05;6.18;;;18.40;99.90;;;;;;5044407;28;20044;-79
2022/07/19 04:41:08;;;;;;;9.30;6.13;;;18.40;99.90;;;;;;5049151;28;20029;-79
2022/07/19 04:43:36;;;;;;;9.32;5.95;;;18.40;99.90;;;;;;5066103;28;20033;-79
2022/07/19 04:46:03;;;;;;;8.65;5.90;;;18.40;99.90;;;;;;5068492;28;20028;-80
2022/07/19 04:48:29;;;;;;;10.25;5.65;;;18.50;99.90;;;;;;5059113;28;20039;-79
2022/07/19 04:50:55;;;;;;;8.60;5.60;;;18.50;99.90;;;;;;5065555;28;20370;-81
2022/07/19 04:53:23;;;;;;;9.15;5.40;;;18.50;99.90;;;;;;5037230;28;20045;-79
2022/07/19 04:55:49;;;;;;;6.72;5.45;;;18.50;99.90;;;;;;5035992;28;20073;-79
2022/07/19 04:58:15;;;;;;;11.45;6.00;;;18.60;99.90;;;;;;5045936;28;20133;-79
2022/07/19 05:00:41;;;;;;;7.93;5.53;;;18.60;99.90;;;;;;5066724;28;20048;-79
2022/07/19 05:03:07;;;;;;;7.22;5.03;;;18.70;99.90;;;;;;5056190;28;20605;-79
2022/07/19 05:05:33;;;;;;;8.30;5.88;;;18.70;99.90;;;;;;5049875;28;20124;-79
2022/07/19 05:07:59;;;;;;;9.38;5.95;;;18.80;99.90;;;;;;5053502;28;20048;-79
2022/07/19 05:10:25;;;;;;;11.57;5.78;;;18.80;99.90;;;;;;5052976;28;20414;-79
2022/07/19 05:12:51;;;;;;;10.30;6.07;;;18.90;99.90;;;;;;5049845;28;20681;-79
2022/07/19 05:15:16;;;;;;;9.35;5.97;;;18.90;99.90;;;;;;5051862;28;20801;-79
2022/07/19 05:17:43;;;;;;;8.15;5.93;;;19.00;99.90;;;;;;5037052;28;20737;-80
2022/07/19 05:20:10;;;;;;;9.70;5.95;;;19.00;99.90;;;;;;5057996;28;20028;-79
2022/07/19 05:22:36;;;;;;;8.40;6.07;;;19.00;99.90;;;;;;5052388;28;20055;-80
2022/07/19 05:25:02;;;;;;;6.38;5.32;;;19.10;99.90;;;;;;5052131;28;20571;-80
2022/07/19 05:27:28;;;;;;;8.48;5.80;;;19.10;99.90;;;;;;5051067;28;20114;-80
2022/07/19 05:29:54;;;;;;;7.93;5.85;;;19.20;99.90;;;;;;5036634;28;20040;-80
2022/07/19 05:32:23;;;;;;;7.60;5.50;;;19.30;99.90;;;;;;5052057;28;20048;-80
2022/07/19 05:34:51;;;;;;;8.60;5.93;;;19.30;99.90;;;;;;5046653;28;20044;-80
2022/07/19 05:37:17;;;;;;;8.45;5.82;;;19.40;99.90;;;;;;5049475;28;20048;-81
2022/07/19 05:39:45;;;;;;;8.23;5.75;;;19.40;99.90;;;;;;5026129;28;20467;-81
2022/07/19 05:42:11;;;;;;;8.27;6.10;;;19.50;99.90;;;;;;5026649;28;20732;-81
2022/07/19 05:44:37;;;;;;;8.05;5.72;;;19.50;99.90;;;;;;5046986;28;20078;-80
2022/07/19 05:47:02;;;;;;;10.48;7.07;;;19.60;99.90;;;;;;5029951;28;20115;-80
2022/07/19 05:49:28;;;;;;;11.23;6.20;;;19.70;99.90;;;;;;5032799;28;20047;-80
2022/07/19 05:51:54;;;;;;;8.80;5.97;;;19.70;99.90;;;;;;5045112;28;20048;-80
2022/07/19 05:54:20;;;;;;;9.90;6.30;;;19.80;99.90;;;;;;5048043;28;20044;-83
2022/07/19 05:56:46;;;;;;;9.15;6.15;;;19.90;99.90;;;;;;5049182;28;20051;-83
2022/07/19 05:59:11;;;;;;;8.82;6.57;;;19.90;99.90;;;;;;5034723;28;21325;-83
2022/07/19 06:01:37;;;;;;;10.38;6.97;;;20.00;99.90;;;;;;5050217;28;20045;-83
2022/07/19 06:04:03;;;;;;;8.70;7.20;;;20.10;99.90;;;;;;5045441;28;20047;-82
2022/07/19 06:06:31;;;;;;;10.32;6.55;;;20.20;99.90;;;;;;5025289;28;20083;-83
2022/07/19 06:08:58;;;;;;;10.20;6.63;;;20.30;99.90;;;;;;5043469;28;20764;-83
2022/07/19 06:11:33;;;;;;;10.48;6.75;;;20.40;99.90;;;;;;5048273;28;20192;-83
2022/07/19 06:13:59;;;;;;;8.50;6.13;;;20.40;99.90;;;;;;5043315;28;20169;-79
2022/07/19 06:16:25;;;;;;;8.73;6.53;;;20.60;99.90;;;;;;5064738;28;20488;-80
2022/07/19 06:18:55;;;;;;;9.05;6.57;;;20.60;99.90;;;;;;5060193;28;20045;-80
2022/07/19 06:21:21;;;;;;;10.10;6.22;;;20.70;99.90;;;;;;5060498;28;20045;-79
2022/07/19 06:23:50;;;;;;;9.38;6.50;;;20.80;99.90;;;;;;5028156;28;20048;-80
2022/07/19 06:26:17;;;;;;;11.35;6.65;;;20.90;99.90;;;;;;5060375;28;20101;-80
2022/07/19 06:28:46;;;;;;;9.32;6.15;;;21.00;99.90;;;;;;5063706;28;20154;-80
2022/07/19 06:31:13;;;;;;;8.68;6.35;;;21.00;99.90;;;;;;5020114;28;20086;-80
2022/07/19 06:33:40;;;;;;;7.55;6.05;;;21.20;99.90;;;;;;5043860;28;20040;-80
2022/07/19 06:36:07;;;;;;;9.55;6.05;;;21.20;99.90;;;;;;5062845;28;20518;-81
2022/07/19 06:38:32;;;;;;;10.68;6.32;;;21.30;99.90;;;;;;5028306;28;20395;-79
2022/07/19 06:41:02;;;;;;;8.77;6.13;;;21.40;99.90;;;;;;5059349;28;20041;-80
2022/07/19 06:43:28;;;;;;;9.48;6.20;;;21.50;99.90;;;;;;5054851;28;20471;-86
2022/07/19 06:45:55;;;;;;;8.35;6.50;;;21.60;99.90;;;;;;5041536;28;20040;-83
2022/07/19 06:48:21;;;;;;;10.82;6.13;;;21.70;99.90;;;;;;5041868;28;20503;-83
2022/07/19 06:50:47;;;;;;;12.80;6.00;;;21.80;99.90;;;;;;5046667;28;20036;-83
2022/07/19 06:53:12;;;;;;;11.88;5.95;;;21.90;99.90;;;;;;5039988;28;20044;-83
2022/07/19 06:55:38;;;;;;;9.15;6.05;;;22.00;99.90;;;;;;5026720;28;20445;-83
2022/07/19 06:58:07;;;;;;;6.78;5.90;;;22.10;99.90;;;;;;5042547;28;20066;-80
2022/07/19 07:00:33;;;;;;;7.90;5.55;;;22.30;99.90;;;;;;5027636;28;20063;-81
2022/07/19 07:02:59;;;;;;;9.20;6.07;;;22.40;99.90;;;;;;5022556;28;20131;-80
2022/07/19 07:05:44;;;;;;;8.90;6.15;;;22.40;99.90;;;;;;5043155;28;20036;-81
2022/07/19 07:08:10;;;;;;;8.38;5.38;;;22.60;99.90;;;;;;5060179;28;20411;-81
2022/07/19 07:10:36;;;;;;;7.68;5.35;;;22.80;99.90;;;;;;5048008;28;20162;-81
2022/07/19 07:13:04;;;;;;;8.05;5.15;;;22.90;99.90;;;;;;5054448;28;20036;-83
2022/07/19 07:15:31;;;;;;;7.72;5.20;;;23.00;99.90;;;;;;5074623;28;20445;-80
2022/07/19 07:17:57;;;;;;;7.60;5.25;;;23.20;99.90;;;;;;5054792;28;20068;-80
2022/07/19 07:20:34;;;;;;;9.20;5.50;;;23.30;99.90;;;;;;5051377;28;20033;-82
2022/07/19 07:23:48;;;;;;;9.43;4.90;;;23.50;99.90;;;;;;5046801;28;20123;-82
2022/07/19 07:27:31;;;;;;;8.23;4.93;;;23.60;99.90;;;;;;5058738;28;20040;-82
2022/07/19 07:29:49;;;;;;;9.00;4.45;;;23.80;99.90;;;;;;5062994;28;20051;-82
2022/07/19 07:32:15;;;;;;;6.85;4.75;;;24.00;99.90;;;;;;5035147;28;20157;-81
2022/07/19 07:34:41;;;;;;;6.72;4.68;;;24.20;99.90;;;;;;5044429;28;20479;-82
2022/07/19 07:37:07;;;;;;;11.50;5.28;;;24.40;99.90;;;;;;5042463;28;20039;-82
2022/07/19 07:39:33;;;;;;;7.80;4.10;;;24.50;99.90;;;;;;5013884;28;20048;-82
2022/07/19 07:41:58;;;;;;;7.10;4.03;;;24.60;99.90;;;;;;5011228;28;20094;-83
2022/07/19 07:44:24;;;;;;;9.90;4.40;;;24.80;99.90;;;;;;5039788;28;20043;-84
2022/07/19 07:46:50;;;;;;;6.72;3.97;;;24.90;99.90;;;;;;5046191;28;20040;-83
2022/07/19 07:49:26;;;;;;;6.80;3.97;;;25.10;99.90;;;;;;5048836;28;20106;-85
2022/07/19 07:51:54;;;;;;;5.63;3.75;;;25.30;99.90;;;;;;5012506;28;20039;-83
2022/07/19 07:54:20;;;;;;;7.10;4.30;;;25.40;99.40;;;;;;5046655;28;20048;-84
2022/07/19 07:56:59;;;;;;;6.25;4.30;;;25.60;99.40;;;;;;5065667;28;20540;-84
2022/07/19 08:00:18;;;;;;;5.28;3.30;;;25.70;99.50;;;;;;5053695;28;20470;-84
2022/07/19 08:02:45;;;;;;;7.28;3.85;;;25.90;99.50;;;;;;5053089;28;20037;-84
2022/07/19 08:05:14;;;;;;;8.57;4.22;;;26.10;98.70;;;;;;5046358;28;20077;-84
2022/07/19 08:07:40;;;;;;;5.38;3.33;;;26.20;99.00;;;;;;5032314;28;20123;-83
2022/07/19 08:10:08;;;;;;;7.88;3.38;;;26.40;98.10;;;;;;5059576;28;20172;-84
2022/07/19 08:12:34;;;;;;;8.98;3.38;;;26.50;97.50;;;;;;5048235;28;20585;-83
2022/07/19 08:15:00;;;;;;;6.45;3.45;;;26.70;97.10;;;;;;5057356;28;20063;-84
2022/07/19 08:17:26;;;;;;;6.85;3.72;;;26.80;96.90;;;;;;5063455;28;20818;-80
2022/07/19 08:19:52;;;;;;;7.55;3.90;;;27.00;95.50;;;;;;5036166;28;20033;-80
2022/07/19 08:22:20;;;;;;;8.85;3.75;;;27.10;95.10;;;;;;5048579;28;20074;-81
2022/07/19 08:24:46;;;;;;;7.43;3.28;;;27.30;94.80;;;;;;5044816;28;20048;-81
2022/07/19 08:27:15;;;;;;;7.30;2.90;;;27.40;93.90;;;;;;5064502;28;20036;-81
2022/07/19 08:29:41;;;;;;;5.97;3.10;;;27.50;94.00;;;;;;5034150;28;20376;-82
2022/07/19 08:32:07;;;;;;;7.72;3.15;;;27.70;93.30;;;;;;5061180;28;20059;-80
2022/07/19 08:34:33;;;;;;;5.18;3.00;;;27.80;92.50;;;;;;5063330;28;20078;-80
2022/07/19 08:37:00;;;;;;;5.78;2.85;;;28.00;92.50;;;;;;5048562;28;20048;-80
2022/07/19 08:39:29;;;;;;;6.65;3.30;;;28.10;90.00;;;;;;5038148;28;20041;-80
2022/07/19 08:41:55;;;;;;;7.50;3.10;;;28.20;90.10;;;;;;5047855;28;20163;-81
2022/07/19 08:44:25;;;;;;;7.28;3.63;;;28.30;89.60;;;;;;5029710;28;20151;-81
2022/07/19 08:46:51;;;;;;;6.78;3.10;;;28.50;87.40;;;;;;5056578;28;20075;-83
2022/07/19 08:49:20;;;;;;;5.80;2.85;;;28.60;85.30;;;;;;5024034;28;20048;-81
2022/07/19 08:51:48;;;;;;;9.95;3.17;;;28.70;81.50;;;;;;5044096;28;20059;-80
2022/07/19 08:54:15;;;;;;;6.60;2.83;;;28.80;81.50;;;;;;5076614;28;20044;-80
2022/07/19 08:59:30;;;;;;;6.30;2.60;;;29.10;80.20;;;;;;5060200;28;20559;-80
2022/07/19 09:01:56;;;;;;;5.90;2.60;;;29.30;78.00;;;;;;5061899;28;20056;-78
2022/07/19 09:04:27;;;;;;;7.60;2.30;;;29.40;75.30;;;;;;5029985;28;20049;-77
2022/07/19 09:06:56;;;;;;;4.75;2.78;;;29.60;76.10;;;;;;5027875;28;20036;-78
2022/07/19 09:09:27;;;;;;;5.43;2.70;;;29.70;73.90;;;;;;5052315;28;20483;-78
2022/07/19 09:11:57;;;;;;;5.72;2.47;;;29.80;74.10;;;;;;5038980;28;20514;-79
2022/07/19 09:14:25;;;;;;;5.00;2.30;;;29.90;74.20;;;;;;5027364;28;20082;-80
2022/07/19 09:16:53;;;;;;;5.55;2.30;;;30.00;70.10;;;;;;5066552;28;20048;-80
2022/07/19 09:19:19;;;;;;;4.22;2.40;;;30.00;68.10;;;;;;5067178;28;20051;-79
2022/07/19 09:22:07;;;;;;;7.00;2.40;;;30.20;66.30;;;;;;5032339;28;20045;-77
2022/07/19 09:24:35;;;;;;;7.95;2.28;;;30.30;67.30;;;;;;5066844;28;20045;-81
2022/07/19 09:27:07;;;;;;;4.55;2.17;;;30.40;64.40;;;;;;5053171;28;20055;-82
2022/07/19 09:29:36;;;;;;;6.55;2.13;;;30.50;63.90;;;;;;5063258;28;20052;-81
2022/07/19 09:32:06;;;;;;;4.47;2.37;;;30.60;61.90;;;;;;5047788;28;20140;-81
2022/07/19 09:34:35;;;;;;;4.88;2.10;;;30.70;61.80;;;;;;5046928;28;21281;-82
2022/07/19 09:37:07;;;;;;;4.95;2.10;;;30.80;63.20;;;;;;5052848;28;20054;-81
2022/07/19 09:39:39;;;;;;;8.38;2.33;;;30.90;60.90;;;;;;5025225;28;20045;-81
2022/07/19 09:42:05;;;;;;;4.38;2.30;;;31.00;60.60;;;;;;5064831;28;20052;-82
2022/07/19 09:44:30;;;;;;;7.32;2.15;;;31.00;60.80;;;;;;5060154;28;20036;-81
2022/07/19 09:46:56;;;;;;;7.00;2.30;;;31.20;60.30;;;;;;5048505;28;20058;-81
2022/07/19 09:49:26;;;;;;;5.63;2.17;;;31.30;59.00;;;;;;5051341;28;20483;-80
2022/07/19 09:51:53;;;;;;;5.40;1.98;;;31.40;58.20;;;;;;5071890;28;20479;-81
2022/07/19 09:54:25;;;;;;;5.50;2.10;;;31.50;56.60;;;;;;5054394;28;20051;-82
2022/07/19 09:56:53;;;;;;;4.20;2.05;;;31.50;56.60;;;;;;5066797;28;20119;-81
2022/07/19 09:59:20;;;;;;;5.93;2.20;;;31.60;58.80;;;;;;5064412;28;20040;-82
2022/07/19 10:01:48;;;;;;;6.22;1.98;;;31.70;56.50;;;;;;5059308;28;20429;-82
2022/07/19 10:04:20;;;;;;;6.22;2.08;;;31.80;56.30;;;;;;5061929;28;20044;-75
2022/07/19 10:06:47;;;;;;;4.70;1.90;;;31.90;56.10;;;;;;5046837;28;20264;-74
2022/07/19 10:09:16;;;;;;;5.88;1.92;;;32.00;55.40;;;;;;5043213;28;20039;-75
2022/07/19 10:11:42;;;;;;;5.72;2.22;;;32.10;53.90;;;;;;5063706;28;20052;-75
2022/07/19 10:14:09;;;;;;;3.92;2.33;;;32.20;53.40;;;;;;5060395;28;20457;-75
2022/07/19 10:16:48;;;;;;;4.70;2.00;;;32.30;54.00;;;;;;5066364;28;20052;-74
2022/07/19 10:19:40;;;;;;;6.50;2.35;;;32.50;53.50;;;;;;5045662;28;20399;-75
2022/07/19 10:22:10;;;;;;;3.92;1.90;;;32.70;52.40;;;;;;5057764;28;20029;-75
2022/07/19 10:24:53;;;;;;;5.47;2.03;;;32.90;52.10;;;;;;5044050;28;21615;-75
2022/07/19 10:27:40;;;;;;;6.82;2.20;;;33.00;52.50;;;;;;5059199;28;20040;-76
2022/07/19 10:30:17;;;;;;;5.13;1.92;;;33.10;50.00;;;;;;5048831;28;20053;-75
2022/07/19 10:32:45;;;;;;;4.57;1.95;;;33.10;50.40;;;;;;5053262;28;20289;-75
2022/07/19 10:35:18;;;;;;;5.03;2.00;;;33.10;51.30;;;;;;5065087;28;20037;-76
2022/07/19 10:37:50;;;;;;;9.48;2.08;;;33.20;51.00;;;;;;5049449;28;20119;-75
2022/07/19 10:40:44;;;;;;;6.97;2.08;;;33.40;50.90;;;;;;5063347;28;20051;-76
2022/07/19 10:43:28;;;;;;;6.63;2.13;;;33.50;49.30;;;;;;5060031;28;20044;-75
2022/07/19 10:45:57;;;;;;;7.30;1.88;;;33.50;49.00;;;;;;5047776;28;20063;-75
2022/07/19 10:48:41;;;;;;;5.03;1.90;;;33.50;49.10;;;;;;5052451;28;20189;-75
2022/07/19 10:51:11;;;;;;;8.52;2.50;;;33.60;48.90;;;;;;5067169;28;20541;-75
2022/07/19 10:53:40;;;;;;;4.32;1.83;;;33.70;49.00;;;;;;5047965;28;20037;-76
2022/07/19 10:56:27;;;;;;;6.60;2.13;;;33.80;48.50;;;;;;5081405;28;20068;-75
2022/07/19 10:59:03;;;;;;;6.90;1.90;;;33.80;47.60;;;;;;5064433;28;20063;-76
2022/07/19 11:01:32;;;;;;;5.65;2.00;;;33.80;45.70;;;;;;5063140;28;20040;-75
2022/07/19 11:04:39;;;;;;;5.05;1.80;;;33.80;47.10;;;;;;5061656;28;20900;-75
2022/07/19 11:07:18;;;;;;;9.10;2.40;;;33.90;47.70;;;;;;5062672;28;20037;-75
2022/07/19 11:09:45;;;;;;;;;;;34.10;48.50;;;;;;5062999;28;20558;-75
2022/07/19 11:12:24;;;;;;;5.00;2.17;;;34.10;47.60;;;;;;5062583;28;19924;-77
2022/07/19 11:14:50;;;;;;;;;;;34.20;48.30;;;;;;5048494;28;20147;-77
2022/07/19 11:17:19;;;;;;;5.78;1.85;;;34.30;49.10;;;;;;5049695;28;19928;-78
2022/07/19 11:20:07;;;;;;;3.90;1.98;;;34.40;47.80;;;;;;5063815;28;20052;-77
2022/07/19 11:22:44;;;;;;;7.38;2.15;;;34.40;46.60;;;;;;5069203;28;20041;-78
2022/07/19 11:25:16;;;;;;;7.10;2.00;;;34.40;46.20;;;;;;5049252;28;20052;-78
2022/07/19 11:27:44;;;;;;;3.55;1.80;;;34.40;46.90;;;;;;5049885;28;20048;-77
2022/07/19 11:30:12;;;;;;;7.07;2.25;;;34.30;46.30;;;;;;5062363;28;20056;-78
2022/07/19 11:32:38;;;;;;;6.75;2.10;;;34.30;46.30;;;;;;5047543;28;20422;-78
2022/07/19 11:35:11;;;;;;;4.63;2.00;;;34.20;46.60;;;;;;5030281;28;20032;-79
2022/07/19 11:37:39;;;;;;;3.67;2.08;;;34.30;46.40;;;;;;5065820;28;20052;-78
2022/07/19 11:40:08;;;;;;;4.57;1.73;;;34.30;48.40;;;;;;5047563;28;20135;-79
2022/07/19 11:42:34;;;;;;;;;;;34.40;48.70;;;;;;5065041;28;20102;-78
2022/07/19 11:45:12;;;;;;;21.15;2.88;;;34.40;44.00;;;;;;5062966;28;19924;-79
2022/07/19 11:47:43;;;;;;;9.27;2.40;;;34.40;48.50;;;;;;5064644;28;20049;-79
2022/07/19 11:50:10;;;;;;;7.30;2.17;;;34.40;48.10;;;;;;5075211;28;20059;-78
2022/07/19 11:52:46;;;;;;;5.10;1.95;;;34.50;47.30;;;;;;5047488;28;20057;-79
2022/07/19 11:55:14;;;;;;;7.35;2.05;;;34.50;46.30;;;;;;5046849;28;20565;-79
2022/07/19 11:57:40;;;;;;;7.32;2.25;;;34.60;46.80;;;;;;5052120;28;20044;-78
2022/07/19 12:00:08;;;;;;;5.15;2.50;;;34.60;47.10;;;;;;5077400;28;20063;-78
2022/07/19 12:02:53;;;;;;;5.15;2.13;;;34.70;45.50;;;;;;5053022;28;20036;-79
2022/07/19 12:05:19;;;;;;;5.82;2.10;;;34.70;43.90;;;;;;5064378;28;20125;-77
2022/07/19 12:07:50;;;;;;;5.70;2.10;;;34.60;44.70;;;;;;5049279;28;20550;-79
2022/07/19 12:10:35;;;;;;;6.82;2.05;;;34.60;45.20;;;;;;5047082;28;20137;-78
2022/07/19 12:13:02;;;;;;;6.18;2.10;;;34.70;46.20;;;;;;5066230;28;20045;-78
2022/07/19 12:15:53;;;;;;;8.15;2.15;;;34.90;44.90;;;;;;5068913;28;20066;-77
2022/07/19 12:18:46;;;;;;;5.82;2.03;;;35.00;44.10;;;;;;5062989;28;20054;-78
2022/07/19 12:21:46;;;;;;;4.15;2.00;;;35.00;45.00;;;;;;5042031;28;20049;-78
2022/07/19 12:24:23;;;;;;;4.10;1.50;;;35.10;42.90;;;;;;4931988;28;20053;-78
2022/07/19 12:26:55;;;;;;;4.80;1.70;;;35.10;43.10;;;;;;4947093;28;20125;-78
2022/07/19 12:29:28;;;;;;;6.55;2.20;;;35.30;43.30;;;;;;5012624;28;20676;-77
2022/07/19 12:32:03;;;;;;;5.28;1.77;;;35.40;42.70;;;;;;5002620;28;20053;-78
2022/07/19 12:34:41;;;;;;;3.78;1.73;;;35.40;43.30;;;;;;5013604;28;20554;-78
2022/07/19 12:37:23;;;;;;;5.63;2.08;;;35.50;43.30;;;;;;5006300;28;20056;-78
2022/07/19 12:40:22;;;;;;;4.25;1.92;;;35.60;42.80;;;;;;5009351;28;20049;-78
2022/07/19 12:42:59;;;;;;;6.00;2.05;;;35.60;43.10;;;;;;5005330;28;20042;-77
2022/07/19 12:45:28;;;;;;;5.78;2.00;;;35.70;43.40;;;;;;5023842;28;20041;-77
2022/07/19 12:47:54;;;;;;;;;;;35.80;43.30;;;;;;5009510;28;20050;-78
2022/07/19 12:50:32;;;;;;;3.88;1.90;;;35.80;42.00;;;;;;5000709;28;20017;-77
2022/07/19 12:53:00;;;;;;;2.77;1.60;;;35.70;42.80;;;;;;4991041;28;20077;-78
2022/07/19 12:55:28;;;;;;;6.57;1.80;;;35.80;41.10;;;;;;5000412;28;20292;-78
2022/07/19 12:57:56;;;;;;;9.68;1.85;;;35.80;40.70;;;;;;5013861;28;20551;-78
2022/07/19 13:00:26;;;;;;;3.47;1.90;;;35.80;40.50;;;;;;4987993;28;20284;-77
2022/07/19 13:02:53;;;;;;;8.18;1.70;;;35.80;40.60;;;;;;5016070;28;20153;-78
2022/07/19 13:05:20;;;;;;;6.30;1.92;;;35.90;40.80;;;;;;5015226;28;20046;-78